North Bridgton, ME

6:52 AM EDT on September 03, 2015 (GMT -0400)
Highland Ridge, Bridgton | | Change Station
CLOSE
Current Station
Personal Weather Station
Location: Bridgton, ME
Elevation: 587 ft
Nearby Weather Stations

Elev 587 ft 44.08 °N, 70.73 °W | Updated 52 seconds ago

Clear
Clear
66.9 °F
Feels Like 66.9 °F
N
0.0
Wind Variable Wind from SE
Gusts 1.8 mph

Today
High -- | Low -- °F
--% Chance of Precip.
Yesterday
High -- | Low -- °F
Precip. -- in
6:08 AM 7:15 PM
Waning Gibbous, 71% visible
Pressure 29.88 in
Visibility 2.5 miles
Clouds Clear
Dew Point 65 °F
Humidity 93%
Rainfall Not available.
Snow Depth Not available.
UV 0 out of 12
Pollen 8.50 out of 12
Air Quality Not available.
Flu Activity Not available.
SPECI KIZG 031049Z AUTO 00000KT 2 1/2SM BR CLR 16/16 A2988 RMK AO2
Pressure 29.88 in
Visibility 2.5 miles
Clouds Clear
Dew Point 65 °F
Humidity 93%
Rainfall Not available.
Snow Depth Not available.
UV 0 out of 12
Pollen 8.50 out of 12
Air Quality Not available.
Flu Activity Not available.
SPECI KIZG 031049Z AUTO 00000KT 2 1/2SM BR CLR 16/16 A2988 RMK AO2

10-Day Weather Forecast

×

Almanac

Astronomy

Sep. 03, 2015 Rise Set
Actual Time
Civil Twilight
Nautical Twilight
Astronomical Twilight
Moon
Length of Visible Light
Length of Day
Tomorrow will be .
, % of the Moon is Illuminated

Today's Extremes

State Highs State Lows

Community

WunderPhotos

Upload Photos

1,851,933 photos uploaded!

WunderBlogs® & News

Nearby

Air Quality

  Air Quality AQ Index Pollutant
Not available.

Snow Depth

Station Depth Elevation

Earthquake Activity

City Distance Mag. Time & Date
Minimum magnitude displayed is 2.5.

Coastal Water Temperatures

Place Temperature

Stations

Nearby Weather Stations

Station Location Temp. Windchill Dew Point Humidity Wind Precip. Elev Updated Type